Página principal
METAR-TAF:

METAR-TAF

Aeroportos :

Base aérea

Morón de la Frontera, Espanha

latitude: 37-09N, longitude: 005-37W, altura: 87 m

Observação actual do tempo

O boletim foi feito há 19 minutos, às 02:00 UTC
Vento 3 kt de nor-nordeste
Temperatura 13°C
Humidade 94%
Pressão 1019 hPa
Visibilidade: 8000 m

METAR: LEMO 130200Z 03003KT 8000 NSC 13/12 Q1019 NOSIG

Hora: 03:19 (02:19 UTC)

Previsão

O boletim foi feito há 3 horas e 19 minutos, às 23:00 UTC
Previsão válida de 13 às 00 UTC a 13 às 09 UTC
Vento 5 kt de nordeste
Visibilidade 10 km ou mais
Nuvens dispersasa uma altura de 3500 ft

TAF: LEMO 122300Z 1300/1309 04005KT 9999 SCT035

Observações e previsões do tempo de mais de 4000 aeroportos (mensagens METAR e TAF).

As estações disponíveis são os pontos amarelos e vermelhos sobre o mapa.

Mova o rato sobre o mapa para ver o nome da estação.

Depois clique no ponto para visualizar as observações e previsões meteorológicas.

Para alterar o mapa : clique nos botões verdes com uma cruz preta para aumentar o zoom; no botão verde com uma pitada de zoom; ou nas setas verdes para mapas adjacentes.


METAR-TAF: